Time;durP1;ratioP1;P1;durP2;ratioP2;P2;SDS_P1;SDS_P2;PMS_P1;PMS_P2;Temp;Humidity;BMP_temperature;BMP_pressure;BME280_temperature;BME280_humidity;BME280_pressure;Samples;Min_cycle;Max_cycle;Signal;HPM_P1;HPM_P2
2022/12/05 00:01:44;;;;;;;45.30;23.75;;;;;;;;;;5073170;28;20650;-67
2022/12/05 00:04:13;;;;;;;46.58;24.45;;;;;;;;;;5073137;28;20227;-67
2022/12/05 00:06:41;;;;;;;52.22;26.63;;;;;;;;;;5073484;28;20193;-67
2022/12/05 00:09:10;;;;;;;46.28;25.58;;;;;;;;;;5073253;28;20208;-66
2022/12/05 00:11:38;;;;;;;45.95;26.33;;;;;;;;;;5073854;28;20204;-67
2022/12/05 00:14:07;;;;;;;49.38;25.38;;;;;;;;;;5073616;28;20221;-67
2022/12/05 00:16:35;;;;;;;47.65;26.25;;;;;;;;;;5073574;28;20555;-67
2022/12/05 00:19:02;;;;;;;47.30;24.95;;;;;;;;;;5073480;28;20580;-67
2022/12/05 00:21:31;;;;;;;44.50;25.02;;;;;;;;;;5073043;28;20208;-67
2022/12/05 00:23:58;;;;;;;48.83;26.17;;;;;;;;;;5073321;28;20211;-67
2022/12/05 00:26:27;;;;;;;50.97;25.30;;;;;;;;;;5072962;28;20197;-67
2022/12/05 00:28:55;;;;;;;46.65;24.60;;;;;;;;;;5073319;28;20207;-67
2022/12/05 00:31:23;;;;;;;46.95;24.35;;;;;;;;;;5073404;28;20196;-67
2022/12/05 00:33:51;;;;;;;37.60;23.58;;;;;;;;;;5072995;28;20565;-67
2022/12/05 00:36:19;;;;;;;43.22;24.70;;;;;;;;;;5072924;28;20643;-67
2022/12/05 00:38:46;;;;;;;45.25;25.77;;;;;;;;;;5073097;28;20292;-67
2022/12/05 00:41:15;;;;;;;44.97;24.65;;;;;;;;;;5073056;28;20196;-66
2022/12/05 00:43:43;;;;;;;46.38;25.00;;;;;;;;;;5073204;28;20569;-66
2022/12/05 00:46:12;;;;;;;48.35;26.77;;;;;;;;;;5073554;28;20219;-66
2022/12/05 00:48:40;;;;;;;49.35;23.63;;;;;;;;;;5073841;28;20674;-66
2022/12/05 00:51:09;;;;;;;39.70;21.60;;;;;;;;;;5076691;28;20662;-66
2022/12/05 00:53:36;;;;;;;46.75;24.60;;;;;;;;;;5077026;28;20575;-66
2022/12/05 00:56:04;;;;;;;47.70;26.08;;;;;;;;;;5077043;28;20196;-67
2022/12/05 00:58:32;;;;;;;45.05;25.20;;;;;;;;;;5076490;28;20206;-66
2022/12/05 01:01:05;;;;;;;41.25;23.77;;;;;;;;;;5076857;28;20192;-66
2022/12/05 01:03:32;;;;;;;49.72;26.23;;;;;;;;;;5076867;28;20183;-66
2022/12/05 01:06:00;;;;;;;47.28;24.75;;;;;;;;;;5076643;28;20271;-67
2022/12/05 01:08:27;;;;;;;45.05;25.10;;;;;;;;;;5076689;28;20207;-66
2022/12/05 01:10:55;;;;;;;42.47;23.92;;;;;;;;;;5076209;28;20207;-68
2022/12/05 01:13:22;;;;;;;43.85;24.10;;;;;;;;;;5076525;28;20198;-66
2022/12/05 01:15:49;;;;;;;49.58;26.60;;;;;;;;;;5076469;28;20207;-66
2022/12/05 01:18:18;;;;;;;43.70;23.45;;;;;;;;;;5076389;28;20552;-66
2022/12/05 01:20:46;;;;;;;41.53;23.98;;;;;;;;;;5076361;28;20197;-67
2022/12/05 01:23:13;;;;;;;52.72;25.55;;;;;;;;;;5075987;28;20193;-67
2022/12/05 01:25:40;;;;;;;45.60;24.92;;;;;;;;;;5076294;28;20216;-67
2022/12/05 01:28:08;;;;;;;40.13;22.38;;;;;;;;;;5075859;28;20203;-66
2022/12/05 01:30:38;;;;;;;37.53;22.60;;;;;;;;;;5076870;28;20557;-67
2022/12/05 01:33:05;;;;;;;48.25;23.80;;;;;;;;;;5076631;28;20185;-67
2022/12/05 01:35:34;;;;;;;39.75;23.13;;;;;;;;;;5076197;28;20231;-66
2022/12/05 01:38:02;;;;;;;39.47;22.30;;;;;;;;;;5075696;28;20751;-67
2022/12/05 01:40:29;;;;;;;42.28;23.38;;;;;;;;;;5075685;28;20203;-67
2022/12/05 01:42:56;;;;;;;36.75;21.33;;;;;;;;;;5075810;28;20227;-66
2022/12/05 01:45:27;;;;;;;46.03;24.33;;;;;;;;;;5075597;28;20221;-67
2022/12/05 01:47:54;;;;;;;39.25;23.20;;;;;;;;;;5075602;28;20274;-67
2022/12/05 01:50:22;;;;;;;42.40;23.38;;;;;;;;;;5075885;28;20292;-66
2022/12/05 01:52:50;;;;;;;39.88;23.02;;;;;;;;;;5075766;28;20269;-66
2022/12/05 01:55:18;;;;;;;42.67;24.00;;;;;;;;;;5075809;28;20687;-67
2022/12/05 01:57:46;;;;;;;45.42;22.73;;;;;;;;;;5075675;28;20202;-67
2022/12/05 02:00:15;;;;;;;41.28;23.35;;;;;;;;;;5074715;28;20204;-67
2022/12/05 02:02:45;;;;;;;47.47;24.67;;;;;;;;;;5075784;28;20196;-67
2022/12/05 02:05:13;;;;;;;41.60;22.73;;;;;;;;;;5075583;28;20277;-67
2022/12/05 02:07:42;;;;;;;36.72;21.40;;;;;;;;;;5075252;28;20211;-66
2022/12/05 02:10:11;;;;;;;44.25;23.50;;;;;;;;;;5075838;28;20203;-66
2022/12/05 02:12:38;;;;;;;38.00;23.13;;;;;;;;;;5075485;28;20205;-66
2022/12/05 02:15:21;;;;;;;40.65;23.85;;;;;;;;;;5075001;28;20204;-66
2022/12/05 02:17:55;;;;;;;40.72;24.20;;;;;;;;;;5075859;28;20195;-66
2022/12/05 02:20:31;;;;;;;45.53;24.17;;;;;;;;;;5075029;28;20184;-66
2022/12/05 02:23:08;;;;;;;43.30;24.90;;;;;;;;;;5075289;28;20585;-66
2022/12/05 02:25:50;;;;;;;43.58;25.13;;;;;;;;;;5075655;28;20298;-66
2022/12/05 02:28:35;;;;;;;47.95;25.10;;;;;;;;;;5075235;28;20274;-67
2022/12/05 02:31:07;;;;;;;38.75;22.00;;;;;;;;;;5074885;28;20197;-67
2022/12/05 02:33:36;;;;;;;45.45;23.13;;;;;;;;;;5074790;28;20626;-66
2022/12/05 02:36:06;;;;;;;39.20;23.58;;;;;;;;;;5075584;28;20228;-67
2022/12/05 02:38:37;;;;;;;38.92;23.40;;;;;;;;;;5074879;28;20202;-68
2022/12/05 02:41:11;;;;;;;41.15;22.27;;;;;;;;;;5074843;28;20321;-67
2022/12/05 02:43:40;;;;;;;37.13;22.70;;;;;;;;;;5075525;28;20200;-68
2022/12/05 02:46:10;;;;;;;43.13;23.10;;;;;;;;;;5075102;28;20224;-66
2022/12/05 02:48:38;;;;;;;45.20;23.30;;;;;;;;;;5075385;28;20215;-66
2022/12/05 02:51:06;;;;;;;43.45;23.80;;;;;;;;;;5075073;28;20202;-67
2022/12/05 02:53:35;;;;;;;41.25;22.40;;;;;;;;;;5074244;28;20676;-67
2022/12/05 02:56:03;;;;;;;40.13;24.38;;;;;;;;;;5074579;28;20197;-67
2022/12/05 02:58:32;;;;;;;40.05;22.13;;;;;;;;;;5074661;28;20237;-68
2022/12/05 03:00:59;;;;;;;40.38;24.05;;;;;;;;;;5074143;28;20238;-67
2022/12/05 03:03:29;;;;;;;40.08;22.85;;;;;;;;;;5074359;28;20197;-67
2022/12/05 03:06:01;;;;;;;35.85;22.70;;;;;;;;;;5074068;28;20228;-67
2022/12/05 03:08:30;;;;;;;43.25;23.42;;;;;;;;;;5074388;28;20196;-67
2022/12/05 03:10:58;;;;;;;42.40;22.23;;;;;;;;;;5074135;28;20287;-67
2022/12/05 03:13:27;;;;;;;48.05;23.92;;;;;;;;;;5074099;28;20201;-67
2022/12/05 03:15:57;;;;;;;43.13;24.85;;;;;;;;;;5074108;28;20287;-67
2022/12/05 03:18:26;;;;;;;43.60;24.33;;;;;;;;;;5073839;28;20201;-67
2022/12/05 03:20:58;;;;;;;44.65;22.90;;;;;;;;;;5073778;28;20197;-67
2022/12/05 03:23:27;;;;;;;40.45;23.13;;;;;;;;;;5074278;28;20200;-68
2022/12/05 03:26:00;;;;;;;42.30;23.60;;;;;;;;;;5073928;28;20582;-66
2022/12/05 03:28:32;;;;;;;43.97;24.58;;;;;;;;;;5074084;28;20189;-66
2022/12/05 03:31:02;;;;;;;37.92;23.33;;;;;;;;;;5073982;28;20276;-66
2022/12/05 03:33:35;;;;;;;41.72;23.42;;;;;;;;;;5074366;28;20186;-67
2022/12/05 03:36:06;;;;;;;41.78;22.52;;;;;;;;;;5073824;28;20192;-67
2022/12/05 03:38:35;;;;;;;37.85;22.42;;;;;;;;;;5074733;28;20186;-66
2022/12/05 03:41:07;;;;;;;42.35;24.58;;;;;;;;;;5073523;28;20196;-66
2022/12/05 03:43:37;;;;;;;44.28;23.23;;;;;;;;;;5073386;28;20229;-67
2022/12/05 03:46:06;;;;;;;48.45;24.88;;;;;;;;;;5073552;28;20227;-67
2022/12/05 03:48:35;;;;;;;43.75;24.65;;;;;;;;;;5073362;28;20291;-66
2022/12/05 03:51:05;;;;;;;45.92;23.88;;;;;;;;;;5073351;28;20687;-67
2022/12/05 03:53:35;;;;;;;39.40;22.48;;;;;;;;;;5073343;28;20216;-66
2022/12/05 03:56:04;;;;;;;44.50;23.90;;;;;;;;;;5073570;28;20200;-66
2022/12/05 03:58:33;;;;;;;44.22;24.48;;;;;;;;;;5073539;28;20195;-67
2022/12/05 04:01:02;;;;;;;44.05;24.70;;;;;;;;;;5073534;28;20287;-66
2022/12/05 04:03:38;;;;;;;47.70;24.92;;;;;;;;;;5073208;28;20685;-67
2022/12/05 04:06:08;;;;;;;39.58;22.70;;;;;;;;;;5073488;28;20220;-67
2022/12/05 04:08:39;;;;;;;39.58;23.55;;;;;;;;;;5074125;28;20193;-67
2022/12/05 04:11:08;;;;;;;44.70;25.45;;;;;;;;;;5073198;28;20293;-67
2022/12/05 04:13:39;;;;;;;44.38;23.95;;;;;;;;;;5073839;28;20198;-67
2022/12/05 04:18:58;;;;;;;46.60;25.45;;;;;;;;;;5073411;28;20180;-68
2022/12/05 04:21:38;;;;;;;42.20;23.50;;;;;;;;;;5073440;28;20200;-67
2022/12/05 04:26:54;;;;;;;44.10;24.85;;;;;;;;;;5077141;28;20673;-67
2022/12/05 04:29:25;;;;;;;49.58;27.30;;;;;;;;;;5077404;28;20205;-67
2022/12/05 04:31:55;;;;;;;47.25;26.83;;;;;;;;;;5077321;28;20222;-66
2022/12/05 04:34:23;;;;;;;42.22;25.42;;;;;;;;;;5077563;28;20188;-66
2022/12/05 04:36:55;;;;;;;42.20;24.15;;;;;;;;;;5077211;28;20192;-67
2022/12/05 04:39:24;;;;;;;40.90;23.95;;;;;;;;;;5077497;28;20658;-65
2022/12/05 04:41:53;;;;;;;51.25;23.50;;;;;;;;;;5077221;28;20287;-67
2022/12/05 04:44:24;;;;;;;42.08;24.40;;;;;;;;;;5076831;28;20680;-66
2022/12/05 04:46:52;;;;;;;36.70;22.42;;;;;;;;;;5077050;28;20208;-66
2022/12/05 04:49:22;;;;;;;47.92;23.33;;;;;;;;;;5077556;28;20200;-67
2022/12/05 04:51:50;;;;;;;42.88;25.02;;;;;;;;;;5076893;28;20566;-66
2022/12/05 04:54:21;;;;;;;38.63;22.60;;;;;;;;;;5076640;28;20192;-66
2022/12/05 04:56:51;;;;;;;38.45;21.20;;;;;;;;;;5076523;28;20658;-66
2022/12/05 04:59:18;;;;;;;41.10;22.77;;;;;;;;;;5075908;28;20666;-66
2022/12/05 05:01:49;;;;;;;42.42;23.80;;;;;;;;;;5076632;28;20556;-66
2022/12/05 05:04:20;;;;;;;41.97;23.20;;;;;;;;;;5076266;28;20195;-66
2022/12/05 05:06:47;;;;;;;36.03;22.85;;;;;;;;;;5076487;28;20209;-66
2022/12/05 05:09:14;;;;;;;37.85;23.70;;;;;;;;;;5076468;28;20197;-66
2022/12/05 05:11:42;;;;;;;39.05;23.98;;;;;;;;;;5076346;28;20205;-66
2022/12/05 05:14:10;;;;;;;42.17;23.48;;;;;;;;;;5076461;28;20197;-66
2022/12/05 05:16:38;;;;;;;34.70;21.67;;;;;;;;;;5076381;28;20203;-66
2022/12/05 05:19:06;;;;;;;39.03;21.63;;;;;;;;;;5075982;28;20208;-66
2022/12/05 05:21:34;;;;;;;36.95;23.60;;;;;;;;;;5076380;28;20196;-66
2022/12/05 05:24:01;;;;;;;37.95;21.92;;;;;;;;;;5076282;28;20197;-66
2022/12/05 05:26:29;;;;;;;38.75;22.85;;;;;;;;;;5087739;28;20229;-66
2022/12/05 05:28:58;;;;;;;36.10;20.95;;;;;;;;;;5096130;28;20202;-66
2022/12/05 05:31:25;;;;;;;44.95;22.60;;;;;;;;;;5096356;28;20193;-66
2022/12/05 05:33:53;;;;;;;36.50;22.10;;;;;;;;;;5096069;28;20196;-67
2022/12/05 05:36:21;;;;;;;44.08;23.40;;;;;;;;;;5096409;28;20204;-66
2022/12/05 05:38:49;;;;;;;41.53;21.58;;;;;;;;;;5095974;28;20665;-66
2022/12/05 05:41:17;;;;;;;40.10;23.65;;;;;;;;;;5095631;28;20288;-66
2022/12/05 05:43:44;;;;;;;36.70;20.73;;;;;;;;;;5088380;28;20195;-66
2022/12/05 05:46:13;;;;;;;40.30;22.48;;;;;;;;;;5096185;28;20224;-66
2022/12/05 05:48:41;;;;;;;38.75;23.83;;;;;;;;;;5096127;28;20195;-66
2022/12/05 05:51:08;;;;;;;39.47;22.50;;;;;;;;;;5095886;28;20196;-66
2022/12/05 05:53:36;;;;;;;37.35;21.92;;;;;;;;;;5095667;28;20197;-66
2022/12/05 05:56:03;;;;;;;46.45;22.38;;;;;;;;;;5095880;28;20201;-66
2022/12/05 05:58:30;;;;;;;40.38;22.33;;;;;;;;;;5095643;28;20198;-66
2022/12/05 06:01:03;;;;;;;45.05;24.15;;;;;;;;;;5095809;28;20200;-65
2022/12/05 06:03:31;;;;;;;44.35;24.02;;;;;;;;;;5095840;28;20219;-65
2022/12/05 06:05:59;;;;;;;39.75;22.33;;;;;;;;;;5095666;28;20226;-66
2022/12/05 06:08:26;;;;;;;39.55;23.52;;;;;;;;;;5095840;28;20195;-65
2022/12/05 06:10:53;;;;;;;37.30;22.50;;;;;;;;;;5095514;28;20653;-69
2022/12/05 06:13:20;;;;;;;38.55;22.75;;;;;;;;;;5095359;28;20216;-66
2022/12/05 06:15:47;;;;;;;48.83;23.60;;;;;;;;;;5095332;28;20198;-65
2022/12/05 06:18:14;;;;;;;35.20;20.83;;;;;;;;;;5095222;28;20199;-66
2022/12/05 06:20:53;;;;;;;36.35;22.55;;;;;;;;;;5095569;28;20201;-65
2022/12/05 06:23:21;;;;;;;35.83;20.58;;;;;;;;;;5095384;28;20230;-65
2022/12/05 06:25:48;;;;;;;36.65;23.05;;;;;;;;;;5095122;28;20209;-65
2022/12/05 06:28:16;;;;;;;39.15;22.23;;;;;;;;;;5094964;28;20198;-65
2022/12/05 06:30:43;;;;;;;34.13;20.80;;;;;;;;;;5095046;28;20231;-65
2022/12/05 06:33:10;;;;;;;38.15;21.52;;;;;;;;;;5095207;28;20204;-66
2022/12/05 06:35:37;;;;;;;31.95;20.58;;;;;;;;;;5095254;28;20195;-66
2022/12/05 06:38:06;;;;;;;41.90;21.10;;;;;;;;;;5095035;28;20207;-65
2022/12/05 06:40:34;;;;;;;35.53;20.95;;;;;;;;;;5095104;28;20192;-65
2022/12/05 06:43:01;;;;;;;35.53;22.58;;;;;;;;;;5095108;28;20318;-66
2022/12/05 06:45:28;;;;;;;35.00;21.52;;;;;;;;;;5095504;28;20579;-65
2022/12/05 06:47:55;;;;;;;31.75;21.38;;;;;;;;;;5094401;28;20569;-65
2022/12/05 06:50:22;;;;;;;42.78;21.50;;;;;;;;;;5095829;28;20197;-65
2022/12/05 06:52:50;;;;;;;40.05;24.42;;;;;;;;;;5094840;28;20245;-65
2022/12/05 06:55:19;;;;;;;28.90;18.75;;;;;;;;;;5094588;28;20675;-65
2022/12/05 06:57:46;;;;;;;31.38;21.08;;;;;;;;;;5094664;28;20211;-65
2022/12/05 07:02:59;;;;;;;31.08;18.98;;;;;;;;;;5094605;28;20580;-65
2022/12/05 07:05:26;;;;;;;30.83;19.58;;;;;;;;;;5094374;28;20659;-65
2022/12/05 07:07:53;;;;;;;31.35;19.80;;;;;;;;;;5094534;28;20226;-65
2022/12/05 07:10:22;;;;;;;35.55;20.55;;;;;;;;;;5094795;28;20197;-66
2022/12/05 07:12:51;;;;;;;28.83;19.05;;;;;;;;;;5094220;28;20206;-65
2022/12/05 07:15:18;;;;;;;31.55;18.42;;;;;;;;;;5094613;28;20196;-66
2022/12/05 07:17:45;;;;;;;33.08;20.80;;;;;;;;;;5094549;28;20202;-65
2022/12/05 07:20:16;;;;;;;30.08;18.77;;;;;;;;;;5094149;28;20196;-65
2022/12/05 07:22:44;;;;;;;29.45;18.35;;;;;;;;;;5094285;28;20639;-65
2022/12/05 07:25:11;;;;;;;33.95;19.00;;;;;;;;;;5093971;28;20195;-65
2022/12/05 07:27:40;;;;;;;24.67;16.38;;;;;;;;;;5094158;28;20288;-65
2022/12/05 07:30:08;;;;;;;30.83;19.05;;;;;;;;;;5093893;28;20252;-65
2022/12/05 07:32:35;;;;;;;29.13;17.83;;;;;;;;;;5094115;28;20197;-65
2022/12/05 07:35:02;;;;;;;27.65;18.77;;;;;;;;;;5094164;28;20245;-66
2022/12/05 07:37:29;;;;;;;26.20;17.63;;;;;;;;;;5094539;28;20214;-66
2022/12/05 07:39:57;;;;;;;31.48;17.60;;;;;;;;;;5094077;28;20206;-66
2022/12/05 07:42:24;;;;;;;27.90;18.05;;;;;;;;;;5093796;28;20675;-66
2022/12/05 07:44:52;;;;;;;26.92;18.35;;;;;;;;;;5094139;28;20194;-65
2022/12/05 07:47:19;;;;;;;25.17;17.48;;;;;;;;;;5093539;28;20221;-66
2022/12/05 07:49:47;;;;;;;27.15;17.77;;;;;;;;;;5093981;28;20202;-65
2022/12/05 07:52:14;;;;;;;36.33;19.92;;;;;;;;;;5093644;28;20202;-66
2022/12/05 07:54:41;;;;;;;26.15;17.40;;;;;;;;;;5093715;28;20228;-66
2022/12/05 07:57:08;;;;;;;28.90;19.27;;;;;;;;;;5093832;28;20196;-66
2022/12/05 07:59:35;;;;;;;25.65;17.85;;;;;;;;;;5092923;28;20591;-66
2022/12/05 08:02:04;;;;;;;30.67;18.73;;;;;;;;;;5094118;28;20222;-65
2022/12/05 08:04:31;;;;;;;34.72;19.40;;;;;;;;;;5093317;28;20196;-65
2022/12/05 08:06:58;;;;;;;28.90;17.95;;;;;;;;;;5093638;28;20233;-65
2022/12/05 08:09:26;;;;;;;27.48;17.40;;;;;;;;;;5093296;28;20196;-66
2022/12/05 08:11:53;;;;;;;31.83;17.88;;;;;;;;;;5093424;28;20621;-66
2022/12/05 08:14:20;;;;;;;29.92;18.13;;;;;;;;;;5093509;28;20288;-66
2022/12/05 08:16:48;;;;;;;32.25;18.70;;;;;;;;;;5093233;28;20204;-66
2022/12/05 08:19:16;;;;;;;30.85;17.45;;;;;;;;;;5093401;28;20230;-66
2022/12/05 08:21:43;;;;;;;25.98;17.75;;;;;;;;;;5093287;28;20202;-65
2022/12/05 08:24:11;;;;;;;24.77;18.65;;;;;;;;;;5093444;28;20193;-65
2022/12/05 08:26:39;;;;;;;29.92;18.60;;;;;;;;;;5093434;28;20731;-66
2022/12/05 08:29:07;;;;;;;36.85;20.42;;;;;;;;;;5093397;28;20192;-66
2022/12/05 08:31:35;;;;;;;33.92;20.60;;;;;;;;;;5093618;28;20620;-66
2022/12/05 08:34:02;;;;;;;28.85;16.33;;;;;;;;;;5093447;28;20197;-66
2022/12/05 08:36:31;;;;;;;28.73;18.30;;;;;;;;;;5093417;28;20523;-66
2022/12/05 08:38:59;;;;;;;30.15;16.83;;;;;;;;;;5093439;28;20209;-66
2022/12/05 08:41:28;;;;;;;27.38;18.25;;;;;;;;;;5093304;28;20206;-66
2022/12/05 08:43:56;;;;;;;31.30;18.85;;;;;;;;;;5093027;28;20188;-66
2022/12/05 08:46:23;;;;;;;29.17;17.63;;;;;;;;;;5093468;28;20192;-66
2022/12/05 08:48:50;;;;;;;27.73;17.02;;;;;;;;;;5093234;28;20201;-65
2022/12/05 08:51:17;;;;;;;28.88;17.17;;;;;;;;;;5092957;28;20199;-66
2022/12/05 08:53:46;;;;;;;27.73;17.85;;;;;;;;;;5092848;28;20196;-66
2022/12/05 08:56:13;;;;;;;24.33;16.48;;;;;;;;;;5093223;28;20282;-66
2022/12/05 08:58:41;;;;;;;30.13;17.52;;;;;;;;;;5092846;28;20740;-66
2022/12/05 09:01:09;;;;;;;27.27;17.10;;;;;;;;;;5092866;28;20193;-66
2022/12/05 09:03:36;;;;;;;24.55;16.95;;;;;;;;;;5093307;28;20203;-66
2022/12/05 09:06:07;;;;;;;27.58;18.58;;;;;;;;;;5092286;28;20287;-66
2022/12/05 09:08:34;;;;;;;27.83;17.85;;;;;;;;;;5092635;28;20225;-66
2022/12/05 09:11:06;;;;;;;26.08;17.80;;;;;;;;;;5096523;28;20219;-66
2022/12/05 09:13:33;;;;;;;28.77;18.00;;;;;;;;;;5097038;28;20192;-65
2022/12/05 09:16:05;;;;;;;24.90;16.95;;;;;;;;;;5096842;28;20203;-66
2022/12/05 09:18:32;;;;;;;22.00;16.30;;;;;;;;;;5096453;28;20188;-66
2022/12/05 09:20:59;;;;;;;23.20;16.42;;;;;;;;;;5096479;28;20653;-66
2022/12/05 09:23:26;;;;;;;25.55;16.13;;;;;;;;;;5097061;28;20222;-66
2022/12/05 09:25:56;;;;;;;23.23;15.23;;;;;;;;;;5096595;28;20196;-66
2022/12/05 09:28:25;;;;;;;24.63;17.48;;;;;;;;;;5096313;28;20226;-66
2022/12/05 09:30:57;;;;;;;23.80;15.70;;;;;;;;;;5096420;28;20196;-67
2022/12/05 09:33:24;;;;;;;26.77;18.55;;;;;;;;;;5096593;28;20184;-67
2022/12/05 09:35:51;;;;;;;25.00;17.35;;;;;;;;;;5096147;28;20764;-67
2022/12/05 09:38:18;;;;;;;26.17;16.05;;;;;;;;;;5096498;28;20236;-66
2022/12/05 09:40:46;;;;;;;24.20;16.55;;;;;;;;;;5096307;28;20195;-67
2022/12/05 09:43:22;;;;;;;25.48;16.25;;;;;;;;;;5096482;28;20324;-67
2022/12/05 09:45:54;;;;;;;21.95;15.90;;;;;;;;;;5096416;28;20194;-67
2022/12/05 09:48:23;;;;;;;21.85;16.38;;;;;;;;;;5096566;28;20212;-67
2022/12/05 09:50:51;;;;;;;21.85;14.45;;;;;;;;;;5096081;28;20205;-67
2022/12/05 09:53:26;;;;;;;25.20;16.85;;;;;;;;;;5095775;28;20199;-67
2022/12/05 09:55:54;;;;;;;20.27;14.93;;;;;;;;;;5095927;28;20650;-67
2022/12/05 09:58:25;;;;;;;19.67;15.57;;;;;;;;;;5095776;28;20209;-67
2022/12/05 10:00:57;;;;;;;22.63;15.00;;;;;;;;;;5096098;28;20185;-67
2022/12/05 10:03:27;;;;;;;22.10;15.60;;;;;;;;;;5096498;28;20186;-68
2022/12/05 10:06:06;;;;;;;39.60;17.50;;;;;;;;;;5096086;28;20196;-68
2022/12/05 10:08:38;;;;;;;23.50;14.25;;;;;;;;;;5095828;28;20208;-68
2022/12/05 10:11:08;;;;;;;20.00;14.65;;;;;;;;;;5095754;28;20234;-67
2022/12/05 10:13:41;;;;;;;21.25;14.38;;;;;;;;;;5095570;28;20703;-67
2022/12/05 10:16:13;;;;;;;16.38;13.27;;;;;;;;;;5095912;28;20186;-68
2022/12/05 10:18:42;;;;;;;17.98;13.18;;;;;;;;;;5095456;28;20195;-68
2022/12/05 10:21:13;;;;;;;21.33;14.25;;;;;;;;;;5094781;28;20291;-67
2022/12/05 10:23:45;;;;;;;20.80;13.68;;;;;;;;;;5095355;28;20278;-67
2022/12/05 10:26:15;;;;;;;15.88;13.23;;;;;;;;;;5095700;28;20568;-67
2022/12/05 10:28:48;;;;;;;18.90;14.48;;;;;;;;;;5095982;28;20635;-67
2022/12/05 10:31:19;;;;;;;19.02;12.77;;;;;;;;;;5095146;28;20713;-67
2022/12/05 10:33:49;;;;;;;18.25;12.57;;;;;;;;;;5095632;28;20195;-67
2022/12/05 10:36:16;;;;;;;16.20;12.55;;;;;;;;;;5095167;28;20638;-67
2022/12/05 10:38:44;;;;;;;18.75;12.82;;;;;;;;;;5095014;28;20650;-67
2022/12/05 10:41:12;;;;;;;18.02;12.45;;;;;;;;;;5095065;28;20198;-67
2022/12/05 10:43:41;;;;;;;17.23;12.70;;;;;;;;;;5095279;28;20197;-67
2022/12/05 10:46:08;;;;;;;16.17;12.75;;;;;;;;;;5094732;28;20191;-67
2022/12/05 10:48:38;;;;;;;17.02;12.00;;;;;;;;;;5095016;28;20222;-67
2022/12/05 10:51:06;;;;;;;17.48;13.68;;;;;;;;;;5094974;28;20644;-67
2022/12/05 10:53:38;;;;;;;17.55;13.68;;;;;;;;;;5095052;28;20203;-67
2022/12/05 10:56:27;;;;;;;19.08;11.52;;;;;;;;;;5094970;28;20194;-67
2022/12/05 10:58:55;;;;;;;13.52;11.57;;;;;;;;;;5094956;28;20212;-67
2022/12/05 11:01:23;;;;;;;14.73;11.90;;;;;;;;;;5094450;28;20199;-67
2022/12/05 11:03:56;;;;;;;18.58;12.77;;;;;;;;;;5094845;28;20199;-67
2022/12/05 11:06:25;;;;;;;15.85;10.35;;;;;;;;;;5095342;28;20189;-67
2022/12/05 11:08:53;;;;;;;13.95;10.52;;;;;;;;;;5094373;28;20692;-67
2022/12/05 11:11:22;;;;;;;13.65;10.85;;;;;;;;;;5094623;28;20194;-67
2022/12/05 11:13:55;;;;;;;15.18;12.15;;;;;;;;;;5094373;28;20291;-67
2022/12/05 11:16:23;;;;;;;10.93;9.45;;;;;;;;;;5094471;28;20197;-67
2022/12/05 11:18:52;;;;;;;14.60;10.52;;;;;;;;;;5094599;28;20220;-67
2022/12/05 11:21:19;;;;;;;12.80;10.98;;;;;;;;;;5094768;28;20196;-67
2022/12/05 11:23:47;;;;;;;12.93;10.82;;;;;;;;;;5094180;28;20202;-67
2022/12/05 11:26:19;;;;;;;12.88;11.55;;;;;;;;;;5094299;28;20199;-67
2022/12/05 11:28:46;;;;;;;13.05;10.68;;;;;;;;;;5093954;28;20220;-67
2022/12/05 11:31:22;;;;;;;18.23;10.75;;;;;;;;;;5094430;28;20284;-67
2022/12/05 11:34:01;;;;;;;12.52;10.65;;;;;;;;;;5094095;28;20202;-67
2022/12/05 11:36:33;;;;;;;14.23;11.50;;;;;;;;;;5093877;28;20195;-67
2022/12/05 11:39:00;;;;;;;15.13;12.60;;;;;;;;;;5094733;28;20197;-67
2022/12/05 11:41:37;;;;;;;16.05;12.02;;;;;;;;;;5093704;28;20205;-67
2022/12/05 11:44:22;;;;;;;13.40;11.95;;;;;;;;;;5094149;28;20356;-67
2022/12/05 11:46:53;;;;;;;15.10;12.20;;;;;;;;;;5094331;28;20184;-67
2022/12/05 11:49:29;;;;;;;18.80;13.23;;;;;;;;;;5094256;28;20230;-67
2022/12/05 11:52:02;;;;;;;17.48;11.55;;;;;;;;;;5093681;28;20183;-67
2022/12/05 11:54:39;;;;;;;19.67;12.88;;;;;;;;;;5093677;28;20186;-67
2022/12/05 11:57:10;;;;;;;16.02;12.07;;;;;;;;;;5093814;28;20648;-67
2022/12/05 11:59:47;;;;;;;17.58;12.35;;;;;;;;;;5094235;28;20211;-67
2022/12/05 12:02:21;;;;;;;15.15;12.50;;;;;;;;;;5094151;28;20274;-67
2022/12/05 12:04:53;;;;;;;16.50;12.10;;;;;;;;;;5093666;28;20191;-67
2022/12/05 12:07:37;;;;;;;16.77;11.70;;;;;;;;;;5093706;28;20193;-67
2022/12/05 12:10:14;;;;;;;15.32;11.85;;;;;;;;;;5093965;28;20188;-68
2022/12/05 12:12:49;;;;;;;15.65;12.82;;;;;;;;;;5093926;28;20184;-67
2022/12/05 12:15:23;;;;;;;16.60;12.70;;;;;;;;;;5094064;28;20193;-67
2022/12/05 12:17:53;;;;;;;15.02;12.02;;;;;;;;;;5093725;28;20189;-67
2022/12/05 12:20:28;;;;;;;23.02;12.70;;;;;;;;;;5093586;28;20196;-67
2022/12/05 12:23:03;;;;;;;21.77;12.57;;;;;;;;;;5093745;28;20263;-67
2022/12/05 12:25:35;;;;;;;15.98;13.27;;;;;;;;;;5094305;28;20191;-67
2022/12/05 12:28:08;;;;;;;16.77;12.38;;;;;;;;;;5093279;28;20227;-67
2022/12/05 12:30:39;;;;;;;17.70;13.07;;;;;;;;;;5093256;28;20219;-67
2022/12/05 12:33:16;;;;;;;14.75;13.18;;;;;;;;;;5093569;28;20183;-67
2022/12/05 12:35:51;;;;;;;17.00;12.15;;;;;;;;;;5093291;28;20678;-67
2022/12/05 12:38:31;;;;;;;16.30;13.23;;;;;;;;;;5093568;28;20205;-67
2022/12/05 12:41:03;;;;;;;17.98;13.35;;;;;;;;;;5093879;28;20233;-68
2022/12/05 12:43:45;;;;;;;17.67;13.07;;;;;;;;;;5092949;28;20229;-67
2022/12/05 12:46:16;;;;;;;20.23;14.90;;;;;;;;;;5096592;28;20189;-67
2022/12/05 12:48:54;;;;;;;17.20;12.60;;;;;;;;;;5097224;28;20708;-67
2022/12/05 12:51:23;;;;;;;16.00;13.32;;;;;;;;;;5097474;28;20271;-67
2022/12/05 12:53:56;;;;;;;19.50;14.20;;;;;;;;;;5097088;28;20190;-66
2022/12/05 12:56:35;;;;;;;20.25;14.07;;;;;;;;;;5097555;28;20191;-66
2022/12/05 12:59:08;;;;;;;18.60;13.85;;;;;;;;;;5097554;28;20195;-68
2022/12/05 13:01:38;;;;;;;17.60;14.15;;;;;;;;;;5097952;28;20548;-67
2022/12/05 13:04:11;;;;;;;19.92;14.85;;;;;;;;;;5097304;28;20184;-67
2022/12/05 13:06:42;;;;;;;19.38;14.73;;;;;;;;;;5096840;28;20209;-67
2022/12/05 13:09:12;;;;;;;20.33;14.25;;;;;;;;;;5097709;28;20212;-67
2022/12/05 13:11:41;;;;;;;21.13;14.98;;;;;;;;;;5097344;28;20191;-67
2022/12/05 13:14:12;;;;;;;19.00;14.63;;;;;;;;;;5096668;28;20199;-67
2022/12/05 13:16:40;;;;;;;20.15;13.98;;;;;;;;;;5096599;28;20187;-68
2022/12/05 13:19:13;;;;;;;21.73;14.68;;;;;;;;;;5096539;28;20196;-67
2022/12/05 13:21:42;;;;;;;17.00;13.27;;;;;;;;;;5096754;28;20181;-67
2022/12/05 13:24:12;;;;;;;21.75;15.95;;;;;;;;;;5096787;28;20287;-67
2022/12/05 13:26:46;;;;;;;20.35;13.32;;;;;;;;;;5096800;28;20206;-66
2022/12/05 13:29:20;;;;;;;20.00;14.80;;;;;;;;;;5096704;28;20647;-67
2022/12/05 13:31:47;;;;;;;22.33;12.85;;;;;;;;;;5097031;28;20549;-67
2022/12/05 13:34:38;;;;;;;24.17;15.10;;;;;;;;;;5096239;28;20199;-67
2022/12/05 13:42:42;;;;;;;20.00;14.30;;;;;;;;;;5096369;28;20230;-67
2022/12/05 13:45:11;;;;;;;16.55;14.07;;;;;;;;;;5096139;28;20194;-66
2022/12/05 13:47:46;;;;;;;23.67;15.45;;;;;;;;;;5096319;28;20290;-67
2022/12/05 13:50:17;;;;;;;21.50;17.15;;;;;;;;;;5095816;28;20183;-66
2022/12/05 13:52:48;;;;;;;19.70;13.07;;;;;;;;;;5096330;28;20187;-75
2022/12/05 13:55:21;;;;;;;20.23;15.02;;;;;;;;;;5096192;28;20298;-68
2022/12/05 13:57:49;;;;;;;21.55;15.40;;;;;;;;;;5095414;28;20523;-73
2022/12/05 14:00:27;;;;;;;20.40;14.88;;;;;;;;;;5096091;28;20208;-66
2022/12/05 14:02:56;;;;;;;22.80;15.00;;;;;;;;;;5096508;28;20626;-65
2022/12/05 14:05:40;;;;;;;20.85;15.63;;;;;;;;;;5096028;28;20203;-78
2022/12/05 14:08:25;;;;;;;20.33;14.55;;;;;;;;;;5095457;28;20288;-66
2022/12/05 14:11:11;;;;;;;22.20;15.85;;;;;;;;;;5095482;28;20195;-66
2022/12/05 14:13:43;;;;;;;19.00;15.02;;;;;;;;;;5095934;28;20559;-66
2022/12/05 14:16:29;;;;;;;23.95;16.30;;;;;;;;;;5095914;28;20212;-66
2022/12/05 14:18:59;;;;;;;22.20;15.75;;;;;;;;;;5095330;28;20286;-65
2022/12/05 14:21:37;;;;;;;21.92;14.60;;;;;;;;;;5094241;28;20734;-66
2022/12/05 14:24:08;;;;;;;21.33;15.23;;;;;;;;;;5074487;28;20188;-66
2022/12/05 14:26:41;;;;;;;22.88;15.13;;;;;;;;;;5074506;28;20634;-66
2022/12/05 14:29:24;;;;;;;20.60;14.88;;;;;;;;;;5085130;28;20217;-66
2022/12/05 14:31:58;;;;;;;22.10;14.77;;;;;;;;;;5095291;28;20198;-66
2022/12/05 14:34:27;;;;;;;20.33;15.50;;;;;;;;;;5095351;28;20226;-67
2022/12/05 14:37:02;;;;;;;22.85;14.57;;;;;;;;;;5095100;28;20220;-66
2022/12/05 14:39:40;;;;;;;21.58;15.07;;;;;;;;;;5094816;28;20187;-67
2022/12/05 14:42:26;;;;;;;18.05;13.40;;;;;;;;;;5094505;28;20232;-66
2022/12/05 14:44:55;;;;;;;19.52;14.60;;;;;;;;;;5094513;28;20184;-65
2022/12/05 14:47:25;;;;;;;17.55;13.80;;;;;;;;;;5094829;28;20276;-66